Time;durP1;ratioP1;P1;durP2;ratioP2;P2;SDS_P1;SDS_P2;PMS_P1;PMS_P2;Temp;Humidity;BMP_temperature;BMP_pressure;BME280_temperature;BME280_humidity;BME280_pressure;Samples;Min_cycle;Max_cycle;Signal;HPM_P1;HPM_P2
2022/02/07 00:00:24;;;;;;;0.45;0.20;;;;;;;1.93;100.00;91900.03;2091335;28;20082;-82
2022/02/07 00:01:35;;;;;;;0.20;0.20;;;;;;;1.93;100.00;91912.44;2101168;27;20119;-83
2022/02/07 00:03:03;;;;;;;0.13;0.13;;;;;;;1.88;100.00;91900.44;2108350;28;20028;-83
2022/02/07 00:04:00;;;;;;;0.20;0.20;;;;;;;2.00;100.00;91905.22;2109008;28;20027;-84
2022/02/07 00:05:00;;;;;;;3.75;0.20;;;;;;;2.11;100.00;91901.72;2098465;28;20173;-84
2022/02/07 00:06:02;;;;;;;0.30;0.30;;;;;;;2.27;100.00;91899.31;2090013;28;20021;-82
2022/02/07 00:07:05;;;;;;;0.10;0.10;;;;;;;2.09;100.00;91902.13;2098402;28;20154;-83
2022/02/07 00:08:08;;;;;;;0.20;0.20;;;;;;;1.96;100.00;91896.59;2106613;28;20054;-83
2022/02/07 00:09:09;;;;;;;0.17;0.17;;;;;;;1.91;100.00;91904.94;2104451;28;20020;-83
2022/02/07 00:10:10;;;;;;;0.10;0.10;;;;;;;2.15;100.00;91905.06;2114805;28;20441;-83
2022/02/07 00:11:13;;;;;;;0.10;0.10;;;;;;;2.14;100.00;91893.78;2106473;28;20047;-83
2022/02/07 00:12:15;;;;;;;0.13;0.13;;;;;;;2.23;100.00;91886.16;2111507;28;20020;-83
2022/02/07 00:13:16;;;;;;;0.10;0.10;;;;;;;2.13;100.00;91897.56;2106621;28;20080;-84
2022/02/07 00:14:17;;;;;;;0.45;0.20;;;;;;;2.24;100.00;91900.13;2089867;28;20056;-84
2022/02/07 00:15:19;;;;;;;0.10;0.10;;;;;;;2.25;100.00;91904.25;2098083;28;20138;-81
2022/02/07 00:16:26;;;;;;;1.35;0.10;;;;;;;2.28;100.00;91927.16;2098354;28;20651;-83
2022/02/07 00:17:27;;;;;;;1.80;0.10;;;;;;;2.52;100.00;91923.53;2099776;28;20036;-83
2022/02/07 00:18:28;;;;;;;0.10;0.10;;;;;;;2.63;100.00;91907.56;2098221;28;20139;-83
2022/02/07 00:19:29;;;;;;;1.08;0.10;;;;;;;2.65;100.00;91918.47;2106674;27;20065;-81
2022/02/07 00:20:30;;;;;;;0.10;0.10;;;;;;;2.84;100.00;91926.94;2106499;28;20020;-83
2022/02/07 00:21:32;;;;;;;0.10;0.10;;;;;;;2.75;100.00;91928.16;2095727;28;20064;-83
2022/02/07 00:22:33;;;;;;;0.20;0.20;;;;;;;2.74;100.00;91937.22;2090275;28;20477;-83
2022/02/07 00:23:34;;;;;;;0.20;0.20;;;;;;;2.64;100.00;91961.09;2098210;28;20024;-82
2022/02/07 00:24:35;;;;;;;0.30;0.30;;;;;;;2.70;100.00;91949.69;2098080;28;20389;-82
2022/02/07 00:25:36;;;;;;;0.10;0.10;;;;;;;2.91;100.00;91969.81;2089835;28;20736;-82
2022/02/07 00:26:37;;;;;;;0.10;0.10;;;;;;;2.82;100.00;91974.09;2081607;28;20037;-82
2022/02/07 00:27:38;;;;;;;0.20;0.20;;;;;;;2.82;100.00;91984.63;2081593;28;20025;-83
2022/02/07 00:28:39;;;;;;;3.20;0.68;;;;;;;3.03;100.00;91974.59;2089960;28;20469;-83
2022/02/07 00:29:40;;;;;;;0.10;0.10;;;;;;;2.93;100.00;91978.09;2097040;28;20055;-82
2022/02/07 00:30:41;;;;;;;0.10;0.10;;;;;;;2.78;100.00;91958.28;2106442;28;20020;-84
2022/02/07 00:31:43;;;;;;;0.10;0.10;;;;;;;2.71;100.00;91959.09;2102230;28;20392;-83
2022/02/07 00:32:44;;;;;;;0.10;0.10;;;;;;;2.60;100.00;91976.94;2089886;28;20778;-82
2022/02/07 00:33:45;;;;;;;0.10;0.10;;;;;;;2.72;100.00;91994.16;2098374;28;20400;-84
2022/02/07 00:34:46;;;;;;;0.10;0.10;;;;;;;2.73;100.00;92020.16;2099513;28;20120;-82
2022/02/07 00:35:47;;;;;;;0.10;0.10;;;;;;;2.87;100.00;92029.81;2097934;28;20453;-83
2022/02/07 00:36:54;;;;;;;0.10;0.10;;;;;;;2.99;100.00;92028.56;2089750;28;20025;-82
2022/02/07 00:37:57;;;;;;;0.20;0.20;;;;;;;2.69;100.00;92055.63;2083285;28;20704;-83
2022/02/07 00:39:05;;;;;;;1.98;0.20;;;;;;;2.46;100.00;92070.16;2090297;28;20582;-83
2022/02/07 00:41:21;;;;;;;0.20;0.20;;;;;;;1.85;100.00;92061.94;2098941;28;20087;-82
2022/02/07 00:42:28;;;;;;;0.10;0.10;;;;;;;1.78;100.00;92069.88;2098825;28;20025;-84
2022/02/07 00:44:33;;;;;;;0.10;0.10;;;;;;;1.58;100.00;92082.78;2090556;28;20115;-83
2022/02/07 00:46:46;;;;;;;0.10;0.10;;;;;;;1.56;100.00;92118.53;2098117;28;20024;-82
2022/02/07 00:47:47;;;;;;;;;;;;;;;1.61;100.00;92121.50;2091542;28;20107;-83
2022/02/07 00:48:48;;;;;;;0.20;0.20;;;;;;;1.48;100.00;92130.97;2089816;28;20077;-82
2022/02/07 00:49:49;;;;;;;0.20;0.20;;;;;;;1.29;100.00;92147.97;2089617;28;20119;-83
2022/02/07 00:50:55;;;;;;;0.30;0.15;;;;;;;1.20;100.00;92150.25;2080545;28;20057;-83
2022/02/07 00:51:56;;;;;;;0.20;0.20;;;;;;;1.18;100.00;92155.88;2090196;28;20505;-82
2022/02/07 00:52:58;;;;;;;0.20;0.20;;;;;;;1.20;100.00;92153.63;2089669;28;20021;-83
2022/02/07 00:54:00;;;;;;;0.10;0.10;;;;;;;1.08;100.00;92148.00;2089649;28;20021;-84
2022/02/07 00:55:01;;;;;;;0.15;0.13;;;;;;;0.99;100.00;92162.31;2081887;28;20425;-83
2022/02/07 00:56:03;;;;;;;0.20;0.20;;;;;;;0.82;100.00;92154.44;2089694;28;20096;-82
2022/02/07 00:57:05;;;;;;;0.20;0.20;;;;;;;0.79;100.00;92158.59;2097871;28;20494;-83
2022/02/07 00:58:07;;;;;;;0.10;0.10;;;;;;;0.63;100.00;92152.97;2097724;28;20044;-82
2022/02/07 00:59:08;;;;;;;0.10;0.10;;;;;;;0.56;100.00;92174.72;2098071;28;20447;-84
2022/02/07 01:00:10;;;;;;;0.10;0.10;;;;;;;0.45;100.00;92190.50;2097842;28;20367;-82
2022/02/07 01:01:11;;;;;;;0.10;0.10;;;;;;;0.45;100.00;92193.16;2098001;28;20339;-82
2022/02/07 01:02:12;;;;;;;0.10;0.10;;;;;;;0.43;100.00;92182.25;2097645;28;20094;-84
2022/02/07 01:03:13;;;;;;;0.10;0.10;;;;;;;0.40;100.00;92193.53;2081453;28;20749;-85
2022/02/07 01:04:14;;;;;;;0.65;0.20;;;;;;;0.37;100.00;92217.16;2106091;28;20024;-83
2022/02/07 01:05:16;;;;;;;1.75;0.20;;;;;;;0.32;100.00;92236.69;2109102;28;20095;-84
2022/02/07 01:06:19;;;;;;;0.20;0.20;;;;;;;0.23;100.00;92237.03;2106003;28;20066;-84
2022/02/07 01:07:20;;;;;;;0.10;0.10;;;;;;;0.31;100.00;92256.22;2099567;28;20024;-84
2022/02/07 01:08:30;;;;;;;0.10;0.10;;;;;;;0.22;100.00;92264.44;2106228;28;20106;-84
2022/02/07 01:09:40;;;;;;;0.10;0.10;;;;;;;0.08;100.00;92271.50;2107479;28;20019;-84
2022/02/07 01:10:59;;;;;;;0.43;0.20;;;;;;;0.07;100.00;92267.38;2097799;28;20041;-84
2022/02/07 01:12:11;;;;;;;0.13;0.13;;;;;;;-0.14;100.00;92289.06;2083524;28;20029;-83
2022/02/07 01:13:28;;;;;;;0.20;0.20;;;;;;;-0.10;100.00;92285.31;2076063;28;20502;-82
2022/02/07 01:15:59;;;;;;;0.10;0.10;;;;;;;-0.10;100.00;92322.09;2085422;28;20025;-84
2022/02/07 01:19:07;;;;;;;0.20;0.20;;;;;;;-0.19;100.00;92311.16;2100378;28;20052;-83
2022/02/07 01:21:15;;;;;;;0.10;0.10;;;;;;;-0.17;100.00;92316.06;2097742;28;20031;-82
2022/02/07 01:54:08;;;;;;;1.77;0.50;;;;;;;-0.45;100.00;92424.28;2114304;28;20559;-83
2022/02/07 01:55:18;;;;;;;1.70;0.57;;;;;;;-0.54;100.00;92421.94;2114043;28;20035;-83
2022/02/07 01:56:20;;;;;;;1.92;0.70;;;;;;;-0.59;100.00;92436.16;2115598;28;20020;-84
2022/02/07 01:57:21;;;;;;;2.05;0.80;;;;;;;-0.63;100.00;92442.50;2105681;28;20027;-82
2022/02/07 01:58:22;;;;;;;2.63;0.70;;;;;;;-0.55;100.00;92442.19;2080939;28;20032;-83
2022/02/07 01:59:23;;;;;;;0.40;0.40;;;;;;;-0.58;100.00;92423.78;2073681;28;20030;-83
2022/02/07 02:00:26;;;;;;;1.42;0.50;;;;;;;-0.56;100.00;92445.19;2089321;28;20028;-84
2022/02/07 02:01:28;;;;;;;1.38;0.68;;;;;;;-0.53;100.00;92434.72;2097954;28;20055;-83
2022/02/07 02:02:29;;;;;;;1.15;0.68;;;;;;;-0.48;100.00;92440.72;2089229;28;20044;-83
2022/02/07 02:03:30;;;;;;;1.77;0.70;;;;;;;-0.55;100.00;92441.44;2097579;28;20055;-84
2022/02/07 02:04:32;;;;;;;1.85;0.82;;;;;;;-0.47;100.00;92421.25;2095910;28;20063;-86
2022/02/07 02:05:38;;;;;;;0.98;0.50;;;;;;;-0.49;100.00;92437.34;2090471;28;20033;-84
2022/02/07 02:06:40;;;;;;;2.42;0.90;;;;;;;-0.51;100.00;92461.34;2102890;28;20024;-84
2022/02/07 02:07:42;;;;;;;0.85;0.60;;;;;;;-0.53;100.00;92447.84;2092085;28;20040;-83
2022/02/07 02:08:43;;;;;;;2.72;0.68;;;;;;;-0.39;100.00;92462.22;2095846;28;20119;-84
2022/02/07 02:11:02;;;;;;;;;;;;;;;-0.51;100.00;92476.34;2146377;27;20577;-82
2022/02/07 02:12:05;;;;;;;1.17;0.50;;;;;;;-0.54;100.00;92467.31;2123744;27;19911;-83
2022/02/07 02:13:11;;;;;;;2.42;0.57;;;;;;;-0.49;100.00;92478.59;2105041;28;20446;-85
2022/02/07 02:16:07;;;;;;;1.50;0.60;;;;;;;-0.55;100.00;92476.31;2086047;27;20037;-83
2022/02/07 02:17:30;;;;;;;2.03;0.70;;;;;;;-0.58;100.00;92481.53;2123593;27;20119;-82
2022/02/07 02:36:26;;;;;;;0.60;0.40;;;;;;;-0.62;100.00;92491.97;2120244;28;20042;-83
2022/02/07 02:37:43;;;;;;;3.05;0.60;;;;;;;-0.51;100.00;92495.47;2114571;28;20032;-81
2022/02/07 02:39:05;;;;;;;3.20;0.70;;;;;;;-0.63;100.00;92495.72;2121545;27;20023;-82
2022/02/07 02:45:34;;;;;;;1.77;0.70;;;;;;;-0.55;100.00;92520.94;2122894;27;20039;-83
2022/02/07 02:46:35;;;;;;;2.13;0.90;;;;;;;-0.48;100.00;92537.84;2119530;28;20032;-82
2022/02/07 02:47:36;;;;;;;1.00;0.68;;;;;;;-0.43;100.00;92529.69;2104668;28;20016;-83
2022/02/07 02:48:41;;;;;;;2.08;0.60;;;;;;;-0.30;100.00;92544.81;2113063;28;20468;-81
2022/02/07 02:49:47;;;;;;;2.58;0.85;;;;;;;-0.47;100.00;92532.25;2121853;27;20159;-84
2022/02/07 02:50:51;;;;;;;5.60;0.90;;;;;;;-0.37;100.00;92533.47;2121236;28;20023;-82
2022/02/07 02:51:52;;;;;;;5.25;1.10;;;;;;;-0.48;100.00;92538.63;2105335;28;20024;-83
2022/02/07 02:52:58;;;;;;;2.35;0.95;;;;;;;-0.54;100.00;92551.31;2112979;27;20696;-82
2022/02/07 02:53:59;;;;;;;2.42;0.80;;;;;;;-0.50;100.00;92535.59;2113468;28;20433;-82
2022/02/07 02:55:01;;;;;;;2.67;0.93;;;;;;;-0.45;100.00;92550.28;2112877;28;20054;-83
2022/02/07 02:56:03;;;;;;;1.70;0.63;;;;;;;-0.55;100.00;92560.31;2112701;28;20504;-83
2022/02/07 02:57:04;;;;;;;3.22;0.73;;;;;;;-0.48;100.00;92562.25;2104642;28;20489;-83
2022/02/07 02:58:07;;;;;;;2.95;1.05;;;;;;;-0.41;100.00;92556.31;2112838;27;20176;-82
2022/02/07 02:59:08;;;;;;;5.63;1.17;;;;;;;-0.41;100.00;92549.19;2121257;28;20023;-83
2022/02/07 03:00:09;;;;;;;3.63;1.48;;;;;;;-0.48;100.00;92566.72;2121208;27;20019;-83
2022/02/07 03:01:10;;;;;;;8.95;1.00;;;;;;;-0.48;100.00;92569.34;2121270;28;20058;-82
2022/02/07 03:02:22;;;;;;;3.67;0.95;;;;;;;-0.55;100.00;92575.31;2112832;27;20034;-84
2022/02/07 03:03:23;;;;;;;0.95;0.75;;;;;;;-0.54;100.00;92584.69;2122870;27;20080;-82
2022/02/07 03:04:24;;;;;;;4.63;1.05;;;;;;;-0.61;100.00;92582.00;2118447;28;20110;-83
2022/02/07 03:05:25;;;;;;;5.85;1.52;;;;;;;-0.54;100.00;92593.31;2110837;28;20460;-81
2022/02/07 03:06:26;;;;;;;1.88;0.80;;;;;;;-0.46;100.00;92598.66;2112687;28;20024;-82
2022/02/07 03:07:27;;;;;;;2.80;1.10;;;;;;;-0.37;100.00;92602.50;2110760;28;20020;-82
2022/02/07 03:08:28;;;;;;;1.42;0.68;;;;;;;-0.53;100.00;92601.94;2104245;28;20028;-83
2022/02/07 03:09:29;;;;;;;7.32;0.95;;;;;;;-0.45;100.00;92608.78;2104257;28;20119;-83
2022/02/07 03:10:43;;;;;;;2.90;0.77;;;;;;;-0.54;100.00;92614.31;2104079;28;20047;-83
2022/02/07 03:11:44;;;;;;;2.67;0.85;;;;;;;-0.62;100.00;92612.72;2107873;28;20051;-82
2022/02/07 03:12:58;;;;;;;5.32;1.25;;;;;;;-0.56;100.00;92616.53;2104168;28;20548;-83
2022/02/07 03:14:03;;;;;;;1.17;0.60;;;;;;;-0.46;100.00;92607.28;2105866;28;20428;-82
2022/02/07 03:16:36;;;;;;;3.45;1.10;;;;;;;-0.45;100.00;92616.66;2104745;28;20120;-83
2022/02/07 03:16:40;;;;;;;4.32;0.88;;;;;;;-0.45;100.00;92605.41;2103107;28;20027;-82
2022/02/07 03:17:41;;;;;;;4.75;0.90;;;;;;;-0.47;100.00;92633.88;2106111;28;20702;-84
2022/02/07 03:18:42;;;;;;;7.30;1.23;;;;;;;-0.64;100.00;92630.69;2112522;28;20028;-82
2022/02/07 03:19:43;;;;;;;7.15;1.13;;;;;;;-0.68;100.00;92624.63;2112777;28;20020;-82
2022/02/07 03:20:44;;;;;;;4.78;1.35;;;;;;;-0.48;100.00;92638.38;2094758;28;20104;-82
2022/02/07 03:21:45;;;;;;;3.00;1.00;;;;;;;-0.57;100.00;92635.25;2109846;28;20062;-82
2022/02/07 03:22:46;;;;;;;2.78;1.20;;;;;;;-0.65;100.00;92650.19;2105653;28;20032;-82
2022/02/07 03:23:47;;;;;;;5.45;1.75;;;;;;;-0.65;100.00;92636.31;2097429;28;20386;-83
2022/02/07 03:24:48;;;;;;;3.85;0.98;;;;;;;-0.65;100.00;92655.44;2105907;28;20028;-83
2022/02/07 03:25:49;;;;;;;3.28;0.90;;;;;;;-0.53;100.00;92660.47;2090314;28;20024;-83
2022/02/07 03:26:50;;;;;;;7.25;1.15;;;;;;;-0.67;100.00;92644.50;2102475;28;20619;-83
2022/02/07 03:27:51;;;;;;;12.77;2.28;;;;;;;-0.73;100.00;92668.81;2115241;28;20023;-82
2022/02/07 03:28:52;;;;;;;6.47;1.58;;;;;;;-0.60;100.00;92678.72;2114984;28;20051;-82
2022/02/07 03:29:53;;;;;;;5.72;1.20;;;;;;;-0.52;100.00;92669.84;2106704;28;20028;-82
2022/02/07 03:30:54;;;;;;;7.90;1.58;;;;;;;-0.63;100.00;92674.19;2098392;28;20031;-82
2022/02/07 03:31:55;;;;;;;9.10;1.40;;;;;;;-0.50;100.00;92674.72;2098512;28;20025;-83
2022/02/07 03:32:56;;;;;;;6.20;1.30;;;;;;;-0.56;100.00;92673.53;2090183;28;20025;-84
2022/02/07 03:33:57;;;;;;;2.92;1.08;;;;;;;-0.63;100.00;92682.06;2082219;28;20052;-83
2022/02/07 03:34:58;;;;;;;7.18;1.48;;;;;;;-0.75;100.00;92679.66;2084935;28;20017;-83
2022/02/07 03:35:59;;;;;;;5.53;1.23;;;;;;;-0.73;100.00;92693.19;2098510;28;20024;-83
2022/02/07 03:37:00;;;;;;;7.80;1.30;;;;;;;-0.69;100.00;92682.75;2106829;28;20114;-83
2022/02/07 03:38:02;;;;;;;2.42;0.82;;;;;;;-0.68;100.00;92694.75;2106691;28;20016;-82
2022/02/07 03:39:04;;;;;;;3.70;1.58;;;;;;;-0.72;100.00;92702.56;2112127;27;20051;-81
2022/02/07 03:40:05;;;;;;;6.47;1.20;;;;;;;-0.77;100.00;92692.38;2123767;27;20041;-82
2022/02/07 03:41:08;;;;;;;4.80;1.10;;;;;;;-0.76;100.00;92701.75;2115158;28;20417;-81
2022/02/07 03:42:09;;;;;;;4.50;1.58;;;;;;;-0.73;100.00;92729.91;2098744;28;20024;-82
2022/02/07 03:43:10;;;;;;;6.53;1.20;;;;;;;-0.75;100.00;92700.63;2106649;28;20020;-82
2022/02/07 03:44:11;;;;;;;2.47;1.08;;;;;;;-0.66;100.00;92719.53;2098192;28;20052;-82
2022/02/07 03:45:12;;;;;;;2.83;1.10;;;;;;;-0.51;100.00;92725.72;2098353;28;20028;-81
2022/02/07 03:46:13;;;;;;;2.55;1.10;;;;;;;-0.55;100.00;92720.41;2098393;28;20493;-84
2022/02/07 03:47:14;;;;;;;3.53;1.17;;;;;;;-0.53;100.00;92718.22;2090177;28;20029;-82
2022/02/07 03:48:15;;;;;;;4.28;1.02;;;;;;;-0.63;100.00;92720.69;2089927;28;20021;-82
2022/02/07 03:49:16;;;;;;;3.40;1.48;;;;;;;-0.64;100.00;92721.78;2106756;28;20029;-81
2022/02/07 03:50:17;;;;;;;6.97;1.88;;;;;;;-0.65;100.00;92723.66;2098185;28;20082;-83
2022/02/07 03:51:18;;;;;;;5.50;1.30;;;;;;;-0.62;100.00;92728.19;2098309;28;20466;-82
2022/02/07 03:52:19;;;;;;;4.07;1.80;;;;;;;-0.67;100.00;92731.13;2106419;28;20035;-84
2022/02/07 03:53:21;;;;;;;3.30;1.42;;;;;;;-0.72;100.00;92741.91;2098379;28;20492;-83
2022/02/07 03:54:22;;;;;;;6.25;1.83;;;;;;;-0.77;100.00;92731.72;2106621;28;20030;-83
2022/02/07 03:55:24;;;;;;;5.47;1.75;;;;;;;-0.80;100.00;92732.44;2098188;28;20025;-83
2022/02/07 03:56:25;;;;;;;5.93;1.83;;;;;;;-0.81;100.00;92736.91;2098347;28;20024;-83
2022/02/07 03:57:26;;;;;;;6.50;1.52;;;;;;;-0.55;100.00;92738.78;2098321;28;20021;-83
2022/02/07 03:58:26;;;;;;;6.10;1.88;;;;;;;-0.55;100.00;92751.91;2106500;28;20047;-83
2022/02/07 03:59:28;;;;;;;5.38;1.15;;;;;;;-0.51;100.00;92759.84;2098494;28;20095;-82
2022/02/07 04:00:29;;;;;;;4.45;1.23;;;;;;;-0.46;100.00;92764.03;2098601;28;20035;-82
2022/02/07 04:01:33;;;;;;;4.28;1.55;;;;;;;-0.60;100.00;92760.09;2098091;28;20031;-83
2022/02/07 04:02:39;;;;;;;5.38;1.17;;;;;;;-0.52;100.00;92774.09;2107312;28;20110;-83
2022/02/07 04:03:43;;;;;;;8.90;2.65;;;;;;;-0.59;100.00;92771.34;2108588;28;20027;-82
2022/02/07 04:04:53;;;;;;;4.50;1.67;;;;;;;-0.62;100.00;92770.16;2098162;28;20193;-82
2022/02/07 04:05:58;;;;;;;9.00;1.70;;;;;;;-0.69;100.00;92767.47;2093343;28;20077;-82
2022/02/07 04:06:59;;;;;;;9.05;2.00;;;;;;;-0.60;100.00;92767.97;2099416;28;20035;-82
2022/02/07 04:08:01;;;;;;;7.40;1.75;;;;;;;-0.61;100.00;92773.59;2106475;28;20031;-83
2022/02/07 04:09:06;;;;;;;3.75;1.50;;;;;;;-0.57;100.00;92783.03;2094941;28;20028;-82
2022/02/07 04:10:07;;;;;;;7.03;1.37;;;;;;;-0.60;100.00;92790.84;2098571;28;20051;-81
2022/02/07 04:11:20;;;;;;;8.80;1.92;;;;;;;-0.49;100.00;92785.72;2089695;28;20528;-82
2022/02/07 04:12:24;;;;;;;3.78;1.65;;;;;;;-0.73;100.00;92779.78;2098916;28;20025;-82
2022/02/07 04:13:29;;;;;;;5.10;1.70;;;;;;;-0.69;100.00;92782.47;2114729;28;20106;-83
2022/02/07 04:14:30;;;;;;;6.63;1.58;;;;;;;-0.58;100.00;92799.09;2099424;28;20402;-82
2022/02/07 04:15:31;;;;;;;6.10;1.92;;;;;;;-0.79;100.00;92789.81;2097149;28;20020;-82
2022/02/07 04:16:37;;;;;;;7.63;2.13;;;;;;;-0.81;100.00;92793.88;2090643;28;20029;-83
2022/02/07 04:17:43;;;;;;;8.40;2.10;;;;;;;-0.77;100.00;92797.34;2106899;28;20149;-83
2022/02/07 04:19:00;;;;;;;3.92;1.63;;;;;;;-0.76;100.00;92807.47;2107213;28;20036;-82
2022/02/07 04:20:02;;;;;;;9.27;1.80;;;;;;;-0.72;100.00;92809.41;2100371;28;20025;-83
2022/02/07 04:21:03;;;;;;;3.85;1.48;;;;;;;-0.52;100.00;92806.34;2103051;28;20016;-82
2022/02/07 04:22:07;;;;;;;2.97;1.40;;;;;;;-0.69;100.00;92806.84;2094862;28;20033;-83
2022/02/07 04:23:07;;;;;;;4.78;1.50;;;;;;;-0.64;100.00;92814.41;2098352;28;20472;-83
2022/02/07 04:24:10;;;;;;;7.40;1.58;;;;;;;-0.62;100.00;92806.91;2097878;28;20028;-82
2022/02/07 04:25:11;;;;;;;6.13;1.77;;;;;;;-0.68;100.00;92812.84;2098077;28;20434;-82
2022/02/07 04:26:12;;;;;;;8.05;1.75;;;;;;;-0.73;100.00;92806.00;2097959;28;20558;-82
2022/02/07 04:27:13;;;;;;;6.38;1.90;;;;;;;-0.61;100.00;92811.06;2097889;28;20059;-82
2022/02/07 04:28:16;;;;;;;4.35;1.55;;;;;;;-0.70;100.00;92805.31;2106402;28;20019;-82
2022/02/07 04:29:17;;;;;;;8.88;1.88;;;;;;;-0.82;100.00;92803.63;2098189;28;20527;-82
2022/02/07 04:30:18;;;;;;;14.50;1.95;;;;;;;-0.65;100.00;92807.66;2089625;28;20040;-81
2022/02/07 04:31:19;;;;;;;2.60;1.05;;;;;;;-0.65;100.00;92802.41;2097906;28;20107;-82
2022/02/07 04:32:20;;;;;;;3.42;1.42;;;;;;;-0.69;100.00;92817.31;2097794;28;20713;-84
2022/02/07 04:33:21;;;;;;;4.50;1.65;;;;;;;-0.67;100.00;92809.84;2097819;28;20036;-82
2022/02/07 04:34:22;;;;;;;4.75;1.50;;;;;;;-0.66;100.00;92828.97;2097178;28;20024;-83
2022/02/07 04:35:23;;;;;;;6.72;1.48;;;;;;;-0.73;100.00;92808.63;2089599;28;20029;-83
2022/02/07 04:36:24;;;;;;;5.80;1.60;;;;;;;-0.69;100.00;92832.31;2097737;28;20040;-84
2022/02/07 04:37:25;;;;;;;4.90;1.35;;;;;;;-0.66;100.00;92827.13;2089741;28;20059;-84
2022/02/07 04:38:26;;;;;;;6.28;2.20;;;;;;;-0.87;100.00;92826.78;2089759;28;20112;-83
2022/02/07 04:39:27;;;;;;;6.18;1.60;;;;;;;-0.86;100.00;92829.06;2089864;28;20040;-82
2022/02/07 04:40:28;;;;;;;6.38;1.33;;;;;;;-0.73;100.00;92819.13;2098144;28;20031;-83
2022/02/07 04:41:29;;;;;;;4.30;1.30;;;;;;;-0.79;100.00;92826.56;2098158;28;20059;-83
2022/02/07 04:42:30;;;;;;;4.88;1.60;;;;;;;-0.79;100.00;92829.19;2098257;28;20424;-83
2022/02/07 04:43:31;;;;;;;4.25;1.30;;;;;;;-0.83;100.00;92844.09;2097868;28;20465;-84
2022/02/07 04:44:41;;;;;;;2.80;1.00;;;;;;;-1.02;100.00;92847.53;2089707;28;20021;-83
2022/02/07 04:48:12;;;;;;;4.78;1.20;;;;;;;-0.82;100.00;92876.34;2106714;28;20040;-81
2022/02/07 04:49:29;;;;;;;5.47;1.70;;;;;;;-0.91;100.00;92883.69;2108822;28;20073;-82
2022/02/07 04:54:19;;;;;;;1.30;0.82;;;;;;;-0.98;100.00;92904.53;2108666;28;20020;-83
2022/02/07 05:01:21;;;;;;;0.68;0.68;;;;;;;-0.92;100.00;92943.28;2108625;28;20403;-82
2022/02/07 05:02:45;;;;;;;1.20;0.98;;;;;;;-0.88;100.00;92948.56;2107438;28;20042;-83
2022/02/07 05:03:52;;;;;;;0.93;0.65;;;;;;;-0.99;100.00;92950.25;2100935;28;20118;-83
2022/02/07 05:05:16;;;;;;;1.88;0.80;;;;;;;-1.03;100.00;92953.53;2109772;28;20073;-85
2022/02/07 05:14:13;;;;;;;0.77;0.55;;;;;;;-1.20;100.00;92993.28;2108394;28;20020;-82
2022/02/07 05:15:14;;;;;;;1.02;0.60;;;;;;;-1.20;100.00;93003.78;2097493;28;20020;-83
2022/02/07 05:16:27;;;;;;;0.50;0.50;;;;;;;-1.14;100.00;92986.69;2097673;28;20020;-82
2022/02/07 05:17:30;;;;;;;0.88;0.70;;;;;;;-1.25;100.00;92995.44;2099269;28;20025;-83
2022/02/07 05:18:32;;;;;;;1.08;0.60;;;;;;;-1.24;100.00;93002.19;2105832;28;20027;-83
2022/02/07 05:19:32;;;;;;;1.60;0.45;;;;;;;-1.22;100.00;92997.38;2100897;28;20102;-82
2022/02/07 05:20:33;;;;;;;0.77;0.77;;;;;;;-1.19;100.00;93001.91;2097524;28;20043;-84
2022/02/07 05:21:34;;;;;;;3.35;0.90;;;;;;;-1.20;100.00;93016.91;2089181;28;20025;-83
2022/02/07 05:22:36;;;;;;;0.77;0.57;;;;;;;-1.09;100.00;93028.38;2089226;28;20051;-82
2022/02/07 05:23:37;;;;;;;1.75;0.60;;;;;;;-1.00;100.00;93041.28;2097931;28;20465;-83
2022/02/07 05:24:38;;;;;;;2.60;1.15;;;;;;;-1.06;100.00;93043.41;2110170;28;20491;-84
2022/02/07 05:25:39;;;;;;;2.10;0.70;;;;;;;-1.19;100.00;93044.63;2097550;28;20024;-84
2022/02/07 05:26:40;;;;;;;1.05;0.55;;;;;;;-1.13;100.00;93045.16;2097519;28;20031;-83
2022/02/07 05:27:41;;;;;;;4.53;0.70;;;;;;;-1.22;100.00;93044.59;2092773;28;20090;-85
2022/02/07 05:28:43;;;;;;;2.25;0.80;;;;;;;-1.31;100.00;93050.00;2097587;28;20055;-83
2022/02/07 05:29:44;;;;;;;6.07;0.90;;;;;;;-1.30;100.00;93057.53;2100918;28;20017;-83
2022/02/07 05:30:46;;;;;;;1.73;1.10;;;;;;;-1.27;100.00;93056.09;2089008;28;20510;-84
2022/02/07 05:31:47;;;;;;;5.10;0.80;;;;;;;-1.23;100.00;93051.66;2097778;28;20048;-83
2022/02/07 05:32:48;;;;;;;6.40;0.95;;;;;;;-1.22;100.00;93057.69;2097482;28;20370;-83
2022/02/07 05:33:49;;;;;;;4.75;1.17;;;;;;;-1.40;100.00;93065.19;2097625;28;20035;-83
2022/02/07 05:34:51;;;;;;;5.05;0.93;;;;;;;-1.36;100.00;93069.41;2097364;28;20032;-84
2022/02/07 05:36:10;;;;;;;2.22;0.70;;;;;;;-1.47;100.00;93072.88;2097662;28;20017;-82
2022/02/07 05:37:14;;;;;;;2.33;0.82;;;;;;;-1.51;100.00;93067.53;2096865;28;20622;-84
2022/02/07 05:38:15;;;;;;;5.15;1.25;;;;;;;-1.34;100.00;93072.41;2087378;28;20058;-82
2022/02/07 05:39:18;;;;;;;3.70;1.10;;;;;;;-1.30;100.00;93080.38;2096224;28;20028;-83
2022/02/07 05:40:37;;;;;;;4.60;1.35;;;;;;;-1.31;100.00;93082.22;2081939;28;20028;-83
2022/02/07 05:41:38;;;;;;;8.07;1.15;;;;;;;-1.35;100.00;93094.50;2098838;28;20032;-83
2022/02/07 05:42:39;;;;;;;9.27;1.40;;;;;;;-1.47;100.00;93088.59;2103553;28;20843;-83
2022/02/07 05:43:44;;;;;;;4.25;1.13;;;;;;;-1.46;100.00;93103.97;2104498;28;20111;-83
2022/02/07 05:44:46;;;;;;;4.07;1.10;;;;;;;-1.43;100.00;93099.94;2105311;28;20024;-82
2022/02/07 05:45:47;;;;;;;6.22;1.80;;;;;;;-1.56;100.00;93105.25;2096291;28;20466;-83
2022/02/07 05:46:48;;;;;;;3.53;0.80;;;;;;;-1.51;100.00;93109.47;2096415;28;20124;-83
2022/02/07 05:47:49;;;;;;;7.90;1.00;;;;;;;-1.42;100.00;93107.44;2096254;28;20113;-84
2022/02/07 05:48:50;;;;;;;6.47;1.33;;;;;;;-1.47;100.00;93125.28;2087762;28;20036;-84
2022/02/07 05:49:51;;;;;;;2.47;1.05;;;;;;;-1.58;100.00;93120.56;2088162;28;20028;-83
2022/02/07 05:50:53;;;;;;;5.13;1.05;;;;;;;-1.52;100.00;93142.78;2087859;28;20036;-83
2022/02/07 05:51:57;;;;;;;3.45;0.90;;;;;;;-1.48;100.00;93127.16;2104735;28;20031;-82
2022/02/07 05:52:59;;;;;;;2.58;0.70;;;;;;;-1.51;100.00;93130.44;2096837;28;20368;-83
2022/02/07 05:54:00;;;;;;;8.63;1.42;;;;;;;-1.48;100.00;93129.78;2097022;28;20036;-84
2022/02/07 05:55:00;;;;;;;3.10;0.95;;;;;;;-1.42;100.00;93138.13;2104969;28;20081;-83
2022/02/07 05:56:02;;;;;;;1.90;0.88;;;;;;;-1.57;100.00;93124.72;2105105;28;20546;-84
2022/02/07 05:57:05;;;;;;;5.32;1.55;;;;;;;-1.52;100.00;93139.41;2104988;28;20600;-82
2022/02/07 05:58:06;;;;;;;6.63;1.63;;;;;;;-1.60;100.00;93128.00;2096877;28;20539;-82
2022/02/07 05:59:07;;;;;;;3.45;1.05;;;;;;;-1.59;100.00;93141.84;2096743;28;20104;-83
2022/02/07 06:00:09;;;;;;;6.57;1.40;;;;;;;-1.70;100.00;93131.13;2088241;28;20037;-82
2022/02/07 06:01:10;;;;;;;3.30;1.30;;;;;;;-1.78;100.00;93134.69;2097161;28;20079;-83
2022/02/07 06:02:11;;;;;;;3.28;1.08;;;;;;;-1.68;100.00;93131.53;2104852;28;20115;-82
2022/02/07 06:03:12;;;;;;;3.97;1.40;;;;;;;-1.70;100.00;93141.63;2105194;28;20031;-83
2022/02/07 06:04:13;;;;;;;2.53;1.27;;;;;;;-1.77;100.00;93155.28;2104795;28;20028;-83
2022/02/07 06:05:14;;;;;;;6.03;1.33;;;;;;;-1.62;100.00;93151.16;2096812;28;20024;-83
2022/02/07 06:06:15;;;;;;;12.15;1.55;;;;;;;-1.54;100.00;93152.88;2105140;28;20618;-82
2022/02/07 06:07:16;;;;;;;4.30;1.10;;;;;;;-1.56;100.00;93155.06;2096705;28;20032;-83
2022/02/07 06:08:18;;;;;;;2.40;1.13;;;;;;;-1.55;100.00;93153.19;2096865;28;20150;-83
2022/02/07 06:09:19;;;;;;;4.72;1.20;;;;;;;-1.56;100.00;93162.91;2096647;28;20461;-82
2022/02/07 06:10:20;;;;;;;4.72;1.40;;;;;;;-1.64;100.00;93155.97;2104927;28;20036;-83
2022/02/07 06:11:21;;;;;;;4.57;1.30;;;;;;;-1.61;100.00;93151.94;2113376;28;20796;-82
2022/02/07 06:12:22;;;;;;;4.22;1.40;;;;;;;-1.72;100.00;93154.28;2110400;28;20051;-82
2022/02/07 06:13:22;;;;;;;4.57;1.15;;;;;;;-1.66;100.00;93166.03;2105175;28;20020;-83
2022/02/07 06:14:23;;;;;;;10.57;1.45;;;;;;;-1.70;100.00;93173.06;2105041;28;20108;-83
2022/02/07 06:15:24;;;;;;;6.60;1.55;;;;;;;-1.49;100.00;93172.03;2105093;28;20427;-84
2022/02/07 06:16:26;;;;;;;4.57;1.08;;;;;;;-1.50;100.00;93173.13;2113161;28;20816;-82
2022/02/07 06:17:28;;;;;;;6.90;1.58;;;;;;;-1.45;100.00;93183.38;2096776;28;20031;-83
2022/02/07 06:18:30;;;;;;;2.95;1.27;;;;;;;-1.52;100.00;93178.72;2088579;28;20119;-83
2022/02/07 06:19:31;;;;;;;8.13;1.70;;;;;;;-1.57;100.00;93187.59;2105123;28;20030;-83
2022/02/07 06:20:32;;;;;;;11.32;1.65;;;;;;;-1.58;100.00;93195.78;2113361;28;20020;-83